Time;durP1;ratioP1;P1;durP2;ratioP2;P2;SDS_P1;SDS_P2;PMS_P1;PMS_P2;Temp;Humidity;BMP_temperature;BMP_pressure;BME280_temperature;BME280_humidity;BME280_pressure;Samples;Min_cycle;Max_cycle;Signal;HPM_P1;HPM_P2
2022/01/19 00:00:13;;;;;;;;;;;;;;;3.03;81.25;101628.30;1745375;81;20490;-77
2022/01/19 00:02:39;;;;;;;;;;;;;;;3.51;79.65;101609.09;1750321;81;20172;-76
2022/01/19 00:05:08;;;;;;;;;;;;;;;3.80;78.99;101603.75;1748603;80;21085;-77
2022/01/19 00:07:34;;;;;;;;;;;;;;;3.69;78.58;101634.80;1752978;80;20178;-77
2022/01/19 00:10:10;;;;;;;;;;;;;;;3.75;78.36;101625.34;1741933;81;20147;-77
2022/01/19 00:12:32;;;;;;;;;;;;;;;3.55;78.51;101628.46;1735756;81;20145;-78
2022/01/19 00:14:58;;;;;;;;;;;;;;;3.33;78.93;101631.27;1736708;81;20261;-78
2022/01/19 00:17:23;;;;;;;;;;;;;;;2.99;80.19;101616.34;1746037;81;21091;-78
2022/01/19 00:19:49;;;;;;;;;;;;;;;3.57;78.74;101605.75;1730004;81;20143;-77
2022/01/19 00:22:14;;;;;;;;;;;;;;;3.38;78.97;101599.23;1729697;81;20456;-78
2022/01/19 00:24:41;;;;;;;;;;;;;;;3.70;77.71;101590.78;1732435;81;20138;-77
2022/01/19 00:27:07;;;;;;;;;;;;;;;3.78;77.15;101583.39;1738982;81;20619;-78
2022/01/19 00:29:32;;;;;;;;;;;;;;;3.52;78.13;101582.91;1742350;81;21117;-77
2022/01/19 00:31:58;;;;;;;;;;;;;;;3.51;78.54;101569.48;1749811;81;20453;-77
2022/01/19 00:34:24;;;;;;;;;;;;;;;3.45;78.31;101568.91;1744476;81;20208;-78
2022/01/19 00:36:49;;;;;;;;;;;;;;;3.51;77.88;101566.87;1731208;81;20140;-78
2022/01/19 00:39:15;;;;;;;;;;;;;;;3.36;77.78;101576.75;1728387;81;20182;-79
2022/01/19 00:41:40;;;;;;;;;;;;;;;3.65;76.90;101573.16;1747693;81;21245;-77
2022/01/19 00:44:06;;;;;;;;;;;;;;;3.10;78.10;101576.22;1732998;81;20189;-77
2022/01/19 00:46:32;;;;;;;;;;;;;;;3.18;78.04;101571.47;1742125;81;20181;-78
2022/01/19 00:48:57;;;;;;;;;;;;;;;3.40;77.26;101583.06;1734743;80;20198;-79
2022/01/19 00:51:23;;;;;;;;;;;;;;;3.21;77.77;101573.94;1733604;80;20180;-78
2022/01/19 00:53:48;;;;;;;;;;;;;;;3.24;77.79;101584.70;1735556;81;21158;-79
2022/01/19 00:56:14;;;;;;;;;;;;;;;2.83;79.93;101594.86;1729250;81;20483;-79
2022/01/19 00:58:39;;;;;;;;;;;;;;;3.20;79.38;101590.55;1724361;81;20146;-79
2022/01/19 01:01:05;;;;;;;;;;;;;;;3.16;78.97;101585.06;1747171;81;20114;-79
2022/01/19 01:03:30;;;;;;;;;;;;;;;2.97;80.18;101559.47;1753923;81;20422;-79
2022/01/19 01:05:56;;;;;;;;;;;;;;;3.49;78.47;101561.33;1744816;81;21083;-79
2022/01/19 01:08:22;;;;;;;;;;;;;;;3.15;79.40;101552.05;1733550;81;20123;-79
2022/01/19 01:10:48;;;;;;;;;;;;;;;3.01;79.97;101551.86;1754478;81;20471;-79
2022/01/19 01:16:16;;;;;;;;;;;;;;;3.48;79.16;101557.02;1723037;82;20183;-79
2022/01/19 01:18:32;;;;;;;;;;;;;;;3.21;80.15;101557.44;1748779;80;20613;-78
2022/01/19 01:20:59;;;;;;;;;;;;;;;3.29;80.14;101568.34;1748943;81;20641;-80
2022/01/19 01:23:25;;;;;;;;;;;;;;;3.48;79.62;101550.48;1749208;80;20112;-79
2022/01/19 01:25:51;;;;;;;;;;;;;;;3.23;80.47;101551.23;1751506;81;20146;-79
2022/01/19 01:28:17;;;;;;;;;;;;;;;3.43;80.31;101537.66;1744961;80;20216;-80
2022/01/19 01:30:43;;;;;;;;;;;;;;;3.92;78.62;101535.19;1747175;81;21162;-79
2022/01/19 01:33:08;;;;;;;;;;;;;;;3.76;78.81;101513.40;1748974;81;20124;-79
2022/01/19 01:35:34;;;;;;;;;;;;;;;3.87;78.37;101497.14;1754574;80;20133;-79
2022/01/19 01:38:00;;;;;;;;;;;;;;;3.96;77.80;101503.20;1755295;81;20138;-79
2022/01/19 01:40:26;;;;;;;;;;;;;;;4.15;77.48;101503.09;1754279;80;20215;-79
2022/01/19 01:42:55;;;;;;;;;;;;;;;4.21;76.87;101487.09;1749375;80;22062;-79
2022/01/19 01:45:26;;;;;;;;;;;;;;;4.39;76.59;101484.40;1755969;81;20107;-79
2022/01/19 01:47:55;;;;;;;;;;;;;;;4.41;76.09;101476.86;1749544;80;20180;-81
2022/01/19 01:55:28;;;;;;;;;;;;;;;4.90;74.48;101472.45;1741356;81;20143;-79
2022/01/19 01:57:53;;;;;;;;;;;;;;;4.58;75.06;101469.37;1750476;81;20483;-79
2022/01/19 02:00:21;;;;;;;;;;;;;;;4.80;74.06;101462.94;1743093;80;20108;-78
2022/01/19 02:02:48;;;;;;;;;;;;;;;4.56;74.65;101456.84;1752086;81;20174;-78
2022/01/19 02:05:14;;;;;;;;;;;;;;;4.99;73.67;101452.30;1756464;80;20192;-78
2022/01/19 02:08:00;;;;;;;;;;;;;;;4.71;74.19;101441.22;1754521;81;21791;-79
2022/01/19 02:15:51;;;;;;;;;;;;;;;4.60;74.48;101424.36;1774006;80;20568;-79
2022/01/19 02:23:49;;;;;;;;;;;;;;;4.67;74.04;101430.92;1771770;80;20113;-79
2022/01/19 02:26:19;;;;;;;;;;;;;;;4.76;73.93;101427.42;1766826;79;20119;-78
2022/01/19 02:42:13;;;;;;;;;;;;;;;4.38;75.49;101400.32;1771477;80;20947;-79
2022/01/19 02:49:49;;;;;;;;;;;;;;;4.55;75.45;101398.91;1766486;80;20163;-79
2022/01/19 02:52:16;;;;;;;;;;;;;;;4.48;75.45;101392.35;1766483;80;20412;-78
2022/01/19 02:54:42;;;;;;;;;;;;;;;4.68;75.08;101384.21;1766163;80;20631;-79
2022/01/19 02:57:11;;;;;;;;;;;;;;;4.64;75.28;101379.23;1776213;80;20188;-79
2022/01/19 03:10:33;;;;;;;;;;;;;;;5.04;75.24;101343.74;1770617;80;20168;-80
2022/01/19 03:12:58;;;;;;;;;;;;;;;4.96;75.46;101339.91;1766316;80;21254;-80
2022/01/19 03:15:24;;;;;;;;;;;;;;;5.12;75.25;101330.67;1760760;80;20138;-80
2022/01/19 03:17:50;;;;;;;;;;;;;;;5.07;75.60;101314.41;1761603;80;20162;-80
2022/01/19 03:20:15;;;;;;;;;;;;;;;5.10;75.76;101308.98;1762557;80;20189;-80
2022/01/19 03:22:56;;;;;;;;;;;;;;;4.81;76.98;101307.62;1763783;80;20216;-80
2022/01/19 03:25:13;;;;;;;;;;;;;;;4.68;77.73;101294.42;1763223;80;20112;-81
2022/01/19 03:27:40;;;;;;;;;;;;;;;4.99;76.62;101292.13;1763815;80;20089;-80
2022/01/19 03:30:07;;;;;;;;;;;;;;;4.45;78.89;101299.67;1761967;80;20209;-80
2022/01/19 03:32:33;;;;;;;;;;;;;;;4.85;77.51;101293.42;1762632;80;20207;-82
2022/01/19 03:34:59;;;;;;;;;;;;;;;5.02;77.03;101291.95;1764440;80;20165;-81
2022/01/19 03:37:25;;;;;;;;;;;;;;;5.30;76.28;101282.42;1760242;80;21828;-81
2022/01/19 03:39:50;;;;;;;;;;;;;;;5.08;76.86;101274.17;1761257;80;20201;-81
2022/01/19 03:42:16;;;;;;;;;;;;;;;4.95;77.39;101264.92;1762083;80;20185;-80
2022/01/19 03:44:43;;;;;;;;;;;;;;;5.24;76.90;101264.47;1756971;80;20124;-80
2022/01/19 03:47:09;;;;;;;;;;;;;;;5.55;75.98;101267.81;1760053;80;20422;-79
2022/01/19 03:49:35;;;;;;;;;;;;;;;5.21;76.86;101259.42;1765934;80;21099;-80
2022/01/19 03:52:02;;;;;;;;;;;;;;;5.15;77.33;101246.22;1760099;80;20139;-79
2022/01/19 03:54:29;;;;;;;;;;;;;;;5.56;76.16;101241.96;1763024;80;20169;-79
2022/01/19 03:56:55;;;;;;;;;;;;;;;5.63;76.11;101234.09;1761856;80;20657;-78
2022/01/19 03:59:20;;;;;;;;;;;;;;;5.62;76.19;101231.57;1761636;80;20112;-80
2022/01/19 04:01:46;;;;;;;;;;;;;;;5.87;75.41;101228.22;1763669;80;21096;-81
2022/01/19 04:07:02;;;;;;;;;;;;;;;5.84;75.46;101219.23;1762360;80;20162;-78
2022/01/19 04:09:25;;;;;;;;;;;;;;;5.26;77.74;101221.99;1763221;80;20178;-79
2022/01/19 04:11:51;;;;;;;;;;;;;;;5.40;77.69;101212.80;1767942;79;20136;-79
2022/01/19 04:14:25;;;;;;;;;;;;;;;5.21;78.32;101214.91;1762681;80;21290;-79
2022/01/19 04:16:59;;;;;;;;;;;;;;;5.43;77.91;101205.70;1768719;80;20247;-80
2022/01/19 04:21:53;;;;;;;;;;;;;;;5.13;79.56;101206.69;1766995;79;20149;-79
2022/01/19 04:24:19;;;;;;;;;;;;;;;5.34;79.19;101201.88;1768802;80;20208;-78
2022/01/19 04:26:46;;;;;;;;;;;;;;;5.04;79.95;101201.06;1765320;79;21096;-79
2022/01/19 04:29:12;;;;;;;;;;;;;;;5.23;80.06;101194.69;1770020;80;20121;-79
2022/01/19 04:31:38;;;;;;;;;;;;;;;5.29;79.66;101198.23;1768311;80;20109;-80
2022/01/19 04:34:05;;;;;;;;;;;;;;;5.46;79.39;101192.41;1769448;80;20247;-81
2022/01/19 04:44:58;;;;;;;;;;;;;;;5.53;79.89;101167.48;1774467;79;20498;-79
2022/01/19 05:06:13;;;;;;;;;;;;;;;5.14;81.59;101144.20;1767695;79;20932;-79
2022/01/19 05:08:59;;;;;;;;;;;;;;;5.32;81.20;101140.42;1771566;80;20433;-79
2022/01/19 05:14:05;;;;;;;;;;;;;;;4.79;83.43;101131.55;1768202;80;20159;-79
2022/01/19 05:16:30;;;;;;;;;;;;;;;5.31;81.70;101132.19;1765558;80;20291;-79
2022/01/19 05:18:56;;;;;;;;;;;;;;;5.45;81.23;101130.47;1774669;79;21092;-79
2022/01/19 05:21:21;;;;;;;;;;;;;;;4.97;83.43;101130.41;1770843;80;20139;-77
2022/01/19 05:23:47;;;;;;;;;;;;;;;4.94;84.16;101120.58;1767488;79;20133;-80
2022/01/19 05:26:13;;;;;;;;;;;;;;;4.95;83.60;101130.95;1769619;80;21471;-81
2022/01/19 05:28:38;;;;;;;;;;;;;;;5.04;84.25;101108.13;1767642;79;20137;-80
2022/01/19 05:31:04;;;;;;;;;;;;;;;4.88;84.90;101116.59;1768417;80;21215;-81
2022/01/19 05:33:29;;;;;;;;;;;;;;;5.07;83.80;101111.51;1764014;80;21000;-80
2022/01/19 05:35:55;;;;;;;;;;;;;;;5.16;83.80;101103.07;1768480;80;20156;-81
2022/01/19 05:38:20;;;;;;;;;;;;;;;4.89;84.72;101093.38;1769136;79;20141;-80
2022/01/19 05:40:46;;;;;;;;;;;;;;;4.92;84.58;101097.12;1760591;79;20141;-79
2022/01/19 05:43:11;;;;;;;;;;;;;;;5.08;84.50;101097.02;1776154;80;21060;-79
2022/01/19 05:45:37;;;;;;;;;;;;;;;5.19;83.42;101105.50;1765449;80;21275;-80
2022/01/19 05:48:03;;;;;;;;;;;;;;;4.98;84.66;101103.75;1764042;80;20314;-80
2022/01/19 05:50:28;;;;;;;;;;;;;;;5.12;84.41;101105.02;1773202;80;20164;-80
2022/01/19 05:52:54;;;;;;;;;;;;;;;5.13;84.98;101101.95;1769972;80;20153;-80
2022/01/19 05:55:20;;;;;;;;;;;;;;;5.08;84.50;101100.08;1767480;80;21835;-79
2022/01/19 05:57:46;;;;;;;;;;;;;;;5.46;83.12;101099.41;1770672;80;20194;-79
2022/01/19 06:00:12;;;;;;;;;;;;;;;5.08;84.57;101106.62;1770662;79;20172;-81
2022/01/19 06:02:37;;;;;;;;;;;;;;;5.15;84.67;101104.00;1752743;80;20155;-78
2022/01/19 06:05:04;;;;;;;;;;;;;;;5.32;84.33;101099.00;1767286;79;20154;-77
2022/01/19 06:07:31;;;;;;;;;;;;;;;5.02;85.26;101099.54;1770741;79;22384;-75
2022/01/19 06:10:09;;;;;;;;;;;;;;;5.16;85.02;101093.91;1771441;80;20160;-76
2022/01/19 06:12:30;;;;;;;;;;;;;;;5.23;83.93;101084.70;1760787;80;20155;-81
2022/01/19 06:14:56;;;;;;;;;;;;;;;5.49;83.89;101076.95;1760183;80;20994;-79
2022/01/19 06:17:21;;;;;;;;;;;;;;;5.79;82.52;101085.03;1760668;80;20148;-79
2022/01/19 06:19:48;;;;;;;;;;;;;;;5.70;82.84;101079.47;1761195;80;21097;-79
2022/01/19 06:22:14;;;;;;;;;;;;;;;5.84;82.15;101079.00;1760370;79;20946;-80
2022/01/19 06:24:40;;;;;;;;;;;;;;;5.18;84.28;101083.69;1750569;80;20502;-80
2022/01/19 06:27:06;;;;;;;;;;;;;;;5.72;82.83;101072.34;1759923;80;20151;-78
2022/01/19 06:29:32;;;;;;;;;;;;;;;5.81;81.99;101068.72;1759423;80;20202;-78
2022/01/19 06:31:57;;;;;;;;;;;;;;;5.82;82.01;101069.10;1763619;80;21980;-78
2022/01/19 06:34:23;;;;;;;;;;;;;;;6.04;81.27;101065.42;1765736;80;20184;-78
2022/01/19 06:36:52;;;;;;;;;;;;;;;5.91;81.44;101058.00;1763861;80;20145;-77
2022/01/19 06:39:16;;;;;;;;;;;;;;;5.70;82.20;101067.68;1767003;80;20646;-79
2022/01/19 06:41:41;;;;;;;;;;;;;;;5.89;81.61;101062.52;1766557;80;20144;-80
2022/01/19 06:44:07;;;;;;;;;;;;;;;5.92;81.72;101055.28;1756390;80;21081;-79
2022/01/19 06:46:33;;;;;;;;;;;;;;;5.99;81.74;101054.41;1757689;80;20115;-79
2022/01/19 06:48:58;;;;;;;;;;;;;;;5.92;81.40;101047.89;1766040;79;20484;-79
2022/01/19 06:51:24;;;;;;;;;;;;;;;5.80;81.71;101056.10;1764968;80;20449;-80
2022/01/19 06:53:50;;;;;;;;;;;;;;;6.01;81.52;101055.17;1757917;80;20159;-79
2022/01/19 06:56:16;;;;;;;;;;;;;;;5.80;81.97;101046.09;1763137;80;21222;-79
2022/01/19 06:58:41;;;;;;;;;;;;;;;5.87;81.92;101055.20;1756666;80;20608;-77
2022/01/19 07:01:07;;;;;;;;;;;;;;;5.95;81.48;101068.66;1769644;80;20125;-76
2022/01/19 07:03:33;;;;;;;;;;;;;;;5.87;81.87;101051.27;1766362;80;20542;-79
2022/01/19 07:05:58;;;;;;;;;;;;;;;5.68;82.80;101057.75;1755900;80;20136;-77
2022/01/19 07:08:24;;;;;;;;;;;;;;;5.80;82.31;101051.34;1755924;80;21085;-79
2022/01/19 07:10:49;;;;;;;;;;;;;;;5.78;82.31;101053.20;1766717;80;20197;-77
2022/01/19 07:13:17;;;;;;;;;;;;;;;6.04;81.23;101053.62;1760765;80;20147;-77
2022/01/19 07:15:42;;;;;;;;;;;;;;;5.63;82.75;101053.29;1763272;80;20483;-77
2022/01/19 07:18:08;;;;;;;;;;;;;;;5.69;82.48;101043.71;1761859;80;20486;-77
2022/01/19 07:20:33;;;;;;;;;;;;;;;5.72;82.71;101047.44;1762643;80;21069;-79
2022/01/19 07:23:01;;;;;;;;;;;;;;;5.37;83.77;101047.98;1764369;80;20166;-77
2022/01/19 07:25:26;;;;;;;;;;;;;;;5.83;82.55;101031.00;1757767;79;20125;-79
2022/01/19 07:27:52;;;;;;;;;;;;;;;4.98;84.76;101039.14;1758148;80;20122;-78
2022/01/19 07:30:18;;;;;;;;;;;;;;;5.91;82.17;101040.96;1761526;80;20449;-76
2022/01/19 07:32:44;;;;;;;;;;;;;;;5.65;82.49;101036.98;1762420;80;21152;-77
2022/01/19 07:35:09;;;;;;;;;;;;;;;5.53;83.08;101043.04;1760340;80;20141;-78
2022/01/19 07:37:35;;;;;;;;;;;;;;;5.67;82.72;101035.12;1756145;79;20183;-79
2022/01/19 07:40:00;;;;;;;;;;;;;;;5.63;83.35;101023.16;1762321;80;20168;-79
2022/01/19 07:42:27;;;;;;;;;;;;;;;5.19;85.41;101023.02;1757160;80;20637;-80
2022/01/19 07:44:56;;;;;;;;;;;;;;;5.34;84.35;101032.94;1758634;80;22438;-79
2022/01/19 07:47:21;;;;;;;;;;;;;;;5.27;84.69;101025.97;1766321;80;20443;-79
2022/01/19 07:49:47;;;;;;;;;;;;;;;5.51;84.07;101013.50;1759903;80;20124;-80
2022/01/19 07:52:13;;;;;;;;;;;;;;;5.11;85.61;101012.17;1764572;80;20666;-81
2022/01/19 07:54:38;;;;;;;;;;;;;;;5.62;83.96;101001.81;1759717;80;20467;-80
2022/01/19 07:57:04;;;;;;;;;;;;;;;5.51;84.16;100999.09;1767635;79;22029;-80
2022/01/19 07:59:31;;;;;;;;;;;;;;;5.89;82.63;100996.98;1765783;80;20189;-79
2022/01/19 08:01:57;;;;;;;;;;;;;;;5.83;82.99;100993.47;1763795;80;20873;-80
2022/01/19 08:04:22;;;;;;;;;;;;;;;5.79;83.03;100989.37;1758806;80;20206;-80
2022/01/19 08:06:53;;;;;;;;;;;;;;;5.73;83.04;100975.75;1767338;80;20224;-79
2022/01/19 08:09:16;;;;;;;;;;;;;;;5.34;84.52;100981.39;1755931;79;20124;-81
2022/01/19 08:11:41;;;;;;;;;;;;;;;5.34;84.85;100971.39;1761848;80;20739;-81
2022/01/19 08:14:07;;;;;;;;;;;;;;;5.51;84.42;100972.89;1764930;80;20225;-80
2022/01/19 08:16:32;;;;;;;;;;;;;;;5.26;85.74;100979.76;1762349;80;20116;-80
2022/01/19 08:18:58;;;;;;;;;;;;;;;5.52;84.83;100977.20;1764285;80;20153;-81
2022/01/19 08:21:23;;;;;;;;;;;;;;;5.33;85.28;100983.66;1764728;80;21102;-81
2022/01/19 08:23:49;;;;;;;;;;;;;;;5.40;84.64;100984.91;1760143;80;20230;-80
2022/01/19 08:26:16;;;;;;;;;;;;;;;5.71;83.83;100971.55;1754931;80;20428;-80
2022/01/19 08:28:42;;;;;;;;;;;;;;;5.67;83.86;100980.09;1760213;79;20346;-80
2022/01/19 08:31:08;;;;;;;;;;;;;;;5.63;83.95;100969.44;1758885;80;20272;-79
2022/01/19 08:33:34;;;;;;;;;;;;;;;5.89;82.63;100969.45;1761773;80;21147;-80
2022/01/19 08:36:00;;;;;;;;;;;;;;;5.72;83.12;100970.61;1760594;80;20187;-80
2022/01/19 08:38:25;;;;;;;;;;;;;;;5.70;83.26;100959.37;1766916;80;20305;-80
2022/01/19 08:40:51;;;;;;;;;;;;;;;5.91;82.66;100953.97;1756770;79;20120;-80
2022/01/19 08:43:17;;;;;;;;;;;;;;;5.65;83.48;100955.75;1756553;80;20196;-78
2022/01/19 08:45:43;;;;;;;;;;;;;;;5.89;82.62;100951.94;1763646;80;21090;-78
2022/01/19 08:48:09;;;;;;;;;;;;;;;5.94;82.46;100946.38;1761757;80;20234;-77
2022/01/19 08:50:35;;;;;;;;;;;;;;;5.84;82.87;100930.91;1765264;80;20171;-79
2022/01/19 08:53:01;;;;;;;;;;;;;;;5.97;82.02;100948.82;1760207;80;20527;-78
2022/01/19 08:55:27;;;;;;;;;;;;;;;6.20;81.73;100938.48;1766777;80;20186;-77
2022/01/19 08:57:53;;;;;;;;;;;;;;;6.43;80.55;100940.34;1764569;80;21172;-78
2022/01/19 09:00:19;;;;;;;;;;;;;;;6.17;81.32;100943.95;1758971;80;20187;-78
2022/01/19 09:02:44;;;;;;;;;;;;;;;6.02;81.63;100933.59;1761233;79;20182;-80
2022/01/19 09:05:10;;;;;;;;;;;;;;;6.29;80.86;100960.13;1766639;80;20593;-79
2022/01/19 09:07:36;;;;;;;;;;;;;;;5.91;82.45;100937.42;1763892;79;20121;-77
2022/01/19 09:10:02;;;;;;;;;;;;;;;5.65;82.64;100933.48;1764802;80;21948;-77
2022/01/19 09:12:28;;;;;;;;;;;;;;;6.11;82.31;100929.02;1753969;80;20506;-77
2022/01/19 09:14:54;;;;;;;;;;;;;;;5.96;82.14;100922.67;1765900;80;20174;-77
2022/01/19 09:17:19;;;;;;;;;;;;;;;5.98;82.08;100922.98;1768974;80;20207;-77
2022/01/19 09:19:45;;;;;;;;;;;;;;;5.90;82.21;100924.80;1761276;79;20155;-77
2022/01/19 09:22:10;;;;;;;;;;;;;;;5.77;83.12;100913.47;1756428;80;21135;-77
2022/01/19 09:24:37;;;;;;;;;;;;;;;6.50;80.39;100924.16;1767044;80;20203;-77
2022/01/19 09:27:03;;;;;;;;;;;;;;;6.17;81.97;100919.03;1762394;79;20136;-77
2022/01/19 09:29:29;;;;;;;;;;;;;;;6.08;81.78;100897.77;1757350;80;20164;-77
2022/01/19 09:31:56;;;;;;;;;;;;;;;5.77;83.16;100899.54;1759951;79;20199;-77
2022/01/19 09:34:22;;;;;;;;;;;;;;;6.08;82.00;100901.70;1759102;80;21158;-76
2022/01/19 09:36:48;;;;;;;;;;;;;;;5.80;82.69;100898.02;1762155;79;20183;-77
2022/01/19 09:39:17;;;;;;;;;;;;;;;5.87;82.89;100911.04;1763385;79;20128;-78
2022/01/19 09:41:44;;;;;;;;;;;;;;;5.80;83.09;100884.42;1763391;80;20535;-76
2022/01/19 09:44:11;;;;;;;;;;;;;;;6.05;81.98;100882.25;1757159;80;20173;-77
2022/01/19 09:46:36;;;;;;;;;;;;;;;5.84;82.59;100887.66;1768791;80;21095;-77
2022/01/19 09:49:05;;;;;;;;;;;;;;;6.03;81.87;100877.60;1757574;79;20413;-77
2022/01/19 09:51:31;;;;;;;;;;;;;;;5.82;82.66;100884.32;1763848;80;20068;-77
2022/01/19 09:53:56;;;;;;;;;;;;;;;5.58;84.04;100870.67;1763873;80;20260;-77
2022/01/19 09:56:22;;;;;;;;;;;;;;;5.55;84.35;100875.64;1763161;80;20140;-76
2022/01/19 09:58:48;;;;;;;;;;;;;;;5.91;82.31;100869.26;1766817;80;21221;-76
2022/01/19 10:01:22;;;;;;;;;;;;;;;5.59;82.99;100859.23;1766072;79;20214;-75
2022/01/19 10:03:47;;;;;;;;;;;;;;;6.03;82.07;100863.63;1762223;79;20477;-79
2022/01/19 10:06:16;;;;;;;;;;;;;;;6.06;81.72;100839.37;1762049;80;20175;-77
2022/01/19 10:08:50;;;;;;;;;;;;;;;5.89;82.86;100847.09;1762745;80;21127;-77
2022/01/19 10:16:57;;;;;;;;;;;;;;;6.10;82.01;100867.02;1761880;80;21281;-76
2022/01/19 10:17:04;;;;;;;;;;;;;;;6.02;81.44;100836.59;1760615;80;20137;-77
2022/01/19 10:19:43;;;;;;;;;;;;;;;5.85;82.80;100842.17;1760810;79;20197;-77
2022/01/19 10:22:13;;;;;;;;;;;;;;;5.86;82.88;100834.20;1766491;79;20172;-77
2022/01/19 10:24:42;;;;;;;;;;;;;;;6.26;81.14;100830.06;1758326;79;21095;-76
2022/01/19 10:27:31;;;;;;;;;;;;;;;6.67;79.93;100839.78;1763739;79;20828;-79
2022/01/19 10:30:08;;;;;;;;;;;;;;;6.60;79.63;100841.17;1760161;80;33320;-76
2022/01/19 10:32:41;;;;;;;;;;;;;;;6.38;80.33;100821.76;1762082;79;20209;-77
2022/01/19 10:35:16;;;;;;;;;;;;;;;5.88;82.25;100838.02;1763979;80;20602;-76
2022/01/19 10:37:42;;;;;;;;;;;;;;;6.50;80.70;100827.90;1764433;79;22153;-77
2022/01/19 10:40:15;;;;;;;;;;;;;;;6.42;81.07;100821.91;1764893;79;20468;-77
2022/01/19 10:42:40;;;;;;;;;;;;;;;5.97;81.89;100812.50;1764246;80;20124;-77
2022/01/19 10:45:07;;;;;;;;;;;;;;;6.03;81.52;100837.41;1761696;79;20138;-77
2022/01/19 10:47:53;;;;;;;;;;;;;;;5.56;84.35;100810.52;1759610;79;20182;-77
2022/01/19 10:50:27;;;;;;;;;;;;;;;6.00;82.97;100804.41;1766695;79;21163;-78
2022/01/19 10:52:53;;;;;;;;;;;;;;;5.98;82.93;100807.63;1762312;79;20199;-79
2022/01/19 10:55:22;;;;;;;;;;;;;;;6.08;82.68;100814.34;1761934;79;20253;-80
2022/01/19 10:57:48;;;;;;;;;;;;;;;6.22;82.08;100805.48;1767875;80;21020;-81
2022/01/19 11:00:21;;;;;;;;;;;;;;;6.19;82.14;100796.05;1767887;79;20182;-80
2022/01/19 11:02:47;;;;;;;;;;;;;;;5.46;84.62;100826.50;1758868;80;21100;-81
2022/01/19 11:05:13;;;;;;;;;;;;;;;5.82;83.77;100797.83;1768070;79;20191;-81
2022/01/19 11:07:39;;;;;;;;;;;;;;;6.06;82.72;100805.28;1764970;80;20167;-81
2022/01/19 11:10:17;;;;;;;;;;;;;;;5.73;83.82;100790.14;1772819;80;20258;-82
2022/01/19 11:12:48;;;;;;;;;;;;;;;5.78;83.93;100791.12;1768008;80;20205;-82
2022/01/19 11:15:20;;;;;;;;;;;;;;;6.08;82.66;100796.82;1770392;79;20776;-81
2022/01/19 11:17:47;;;;;;;;;;;;;;;5.98;82.73;100777.93;1776925;79;20283;-81
2022/01/19 11:20:15;;;;;;;;;;;;;;;5.60;83.77;100783.63;1763177;79;20186;-81
2022/01/19 11:22:51;;;;;;;;;;;;;;;5.48;84.83;100763.53;1772543;80;20214;-81
2022/01/19 11:25:25;;;;;;;;;;;;;;;5.57;84.57;100766.81;1767821;79;20473;-80
2022/01/19 11:27:51;;;;;;;;;;;;;;;5.85;83.51;100770.09;1766932;79;21075;-81
2022/01/19 11:30:19;;;;;;;;;;;;;;;5.83;83.50;100760.20;1775324;80;20820;-81
2022/01/19 11:32:47;;;;;;;;;;;;;;;6.12;82.79;100754.16;1765028;79;20522;-81
2022/01/19 11:35:32;;;;;;;;;;;;;;;6.11;82.07;100752.02;1767102;79;20161;-82
2022/01/19 11:37:58;;;;;;;;;;;;;;;6.49;80.91;100750.13;1766133;79;20161;-80
2022/01/19 11:40:26;;;;;;;;;;;;;;;6.03;81.94;100761.38;1767014;79;21772;-80
2022/01/19 11:42:55;;;;;;;;;;;;;;;6.18;81.52;100741.08;1719217;80;20119;-78
2022/01/19 11:45:39;;;;;;;;;;;;;;;6.15;81.69;100754.42;1763694;80;20543;-79
2022/01/19 11:48:20;;;;;;;;;;;;;;;6.26;81.57;100741.34;1769402;80;20182;-78
2022/01/19 11:50:46;;;;;;;;;;;;;;;6.00;81.99;100737.56;1774796;80;20349;-77
2022/01/19 11:53:12;;;;;;;;;;;;;;;5.66;82.89;100729.96;1768468;80;21090;-78
2022/01/19 11:55:43;;;;;;;;;;;;;;;6.08;82.30;100723.41;1770508;79;20446;-77
2022/01/19 11:58:16;;;;;;;;;;;;;;;6.16;81.50;100711.52;1767968;79;20130;-78
2022/01/19 12:00:43;;;;;;;;;;;;;;;6.01;81.64;100705.16;1770351;80;20172;-77
2022/01/19 12:03:26;;;;;;;;;;;;;;;6.41;80.85;100698.23;1764262;80;20221;-78
2022/01/19 12:05:53;;;;;;;;;;;;;;;6.11;81.16;100691.71;1772940;80;22300;-77
2022/01/19 12:08:22;;;;;;;;;;;;;;;6.33;80.31;100690.11;1773137;80;20159;-78
2022/01/19 12:10:48;;;;;;;;;;;;;;;6.08;81.45;100687.18;1781678;80;20206;-77
2022/01/19 12:16:30;;;;;;;;;;;;;;;6.33;79.93;100671.75;1705785;82;20509;-78
2022/01/19 12:19:01;;;;;;;;;;;;;;;6.27;80.67;100673.52;1712996;82;20161;-77
2022/01/19 12:21:58;;;;;;;;;;;;;;;6.72;78.58;100665.72;1726600;82;20604;-77
2022/01/19 12:24:32;;;;;;;;;;;;;;;7.04;77.73;100655.83;1727656;82;20212;-77
2022/01/19 12:27:09;;;;;;;;;;;;;;;6.15;79.81;100663.95;1707770;82;20216;-76
2022/01/19 12:29:41;;;;;;;;;;;;;;;6.53;78.90;100664.17;1724815;81;20523;-77
2022/01/19 12:32:23;;;;;;;;;;;;;;;6.62;78.55;100660.84;1727039;81;21078;-77
2022/01/19 12:34:52;;;;;;;;;;;;;;;6.70;78.15;100655.00;1700799;82;20620;-79
2022/01/19 12:37:49;;;;;;;;;;;;;;;6.87;77.57;100645.79;1729155;81;20239;-79
2022/01/19 12:40:24;;;;;;;;;;;;;;;6.74;78.13;100658.58;1708284;82;20196;-78
2022/01/19 12:42:56;;;;;;;;;;;;;;;6.46;79.08;100641.02;1707392;82;20333;-78
2022/01/19 12:45:26;;;;;;;;;;;;;;;6.83;77.89;100628.97;1723259;81;21114;-79
2022/01/19 12:47:52;;;;;;;;;;;;;;;6.77;78.06;100625.99;1722120;81;20128;-79
2022/01/19 12:50:21;;;;;;;;;;;;;;;7.14;76.88;100616.04;1727815;81;20146;-76
2022/01/19 12:52:53;;;;;;;;;;;;;;;7.07;76.74;100616.19;1726060;81;20571;-77
2022/01/19 12:55:27;;;;;;;;;;;;;;;7.30;76.15;100613.50;1707361;82;20201;-77
2022/01/19 12:57:54;;;;;;;;;;;;;;;7.04;76.33;100613.81;1724881;82;21101;-77
2022/01/19 13:00:32;;;;;;;;;;;;;;;7.51;75.33;100604.38;1708319;82;20172;-77
2022/01/19 13:02:57;;;;;;;;;;;;;;;7.25;75.37;100614.36;1709204;82;20193;-77
2022/01/19 13:05:24;;;;;;;;;;;;;;;7.07;75.69;100613.56;1746098;81;20219;-77
2022/01/19 13:07:55;;;;;;;;;;;;;;;6.51;77.62;100603.08;1728703;82;20212;-78
2022/01/19 13:10:44;;;;;;;;;;;;;;;6.63;77.41;100590.32;1705151;83;20188;-77
2022/01/19 13:13:23;;;;;;;;;;;;;;;7.13;76.29;100588.59;1718625;81;20161;-76
2022/01/19 13:15:43;;;;;;;;;;;;;;;6.63;77.60;100587.70;1746799;80;20205;-78
2022/01/19 13:18:09;;;;;;;;;;;;;;;6.71;77.91;100584.02;1782220;78;20161;-77
2022/01/19 13:20:34;;;;;;;;;;;;;;;6.68;77.48;100579.47;1784365;80;20109;-79
2022/01/19 13:23:00;;;;;;;;;;;;;;;7.28;74.29;100581.27;1782909;78;21899;-78
2022/01/19 13:25:32;;;;;;;;;;;;;;;6.71;77.54;100576.60;1765070;79;21164;-79
2022/01/19 13:28:00;;;;;;;;;;;;;;;6.88;76.83;100579.21;1747292;80;20153;-78
2022/01/19 13:30:28;;;;;;;;;;;;;;;6.42;77.52;100587.59;1759065;80;20484;-79
2022/01/19 13:32:54;;;;;;;;;;;;;;;6.39;78.30;100582.09;1761722;79;20330;-79
2022/01/19 13:35:20;;;;;;;;;;;;;;;6.40;78.09;100568.04;1766257;80;20474;-80
2022/01/19 13:37:51;;;;;;;;;;;;;;;6.27;78.35;100577.80;1759614;79;20206;-80
2022/01/19 13:40:18;;;;;;;;;;;;;;;6.32;78.34;100570.40;1757315;79;20165;-79
2022/01/19 13:43:00;;;;;;;;;;;;;;;6.59;77.49;100567.92;1753425;79;20528;-81
2022/01/19 13:50:41;;;;;;;;;;;;;;;6.42;77.79;100566.13;1761053;80;20107;-79
2022/01/19 13:53:07;;;;;;;;;;;;;;;6.03;79.10;100570.86;1759028;79;20189;-79
2022/01/19 13:55:32;;;;;;;;;;;;;;;6.36;77.79;100562.66;1765764;80;20629;-80
2022/01/19 13:58:12;;;;;;;;;;;;;;;6.53;77.30;100557.91;1763274;79;20134;-79
2022/01/19 14:00:53;;;;;;;;;;;;;;;6.51;77.33;100563.27;1759865;79;21962;-82
2022/01/19 14:03:19;;;;;;;;;;;;;;;6.57;76.80;100552.75;1762397;79;20202;-79
2022/01/19 14:05:47;;;;;;;;;;;;;;;6.43;77.18;100552.06;1769492;79;20555;-80
2022/01/19 14:08:12;;;;;;;;;;;;;;;6.59;76.96;100548.24;1760674;79;21027;-77
2022/01/19 14:10:46;;;;;;;;;;;;;;;5.68;79.72;100544.16;1762967;79;20199;-77
2022/01/19 14:13:31;;;;;;;;;;;;;;;6.38;77.98;100543.69;1756979;79;21275;-81
2022/01/19 14:16:16;;;;;;;;;;;;;;;6.62;77.56;100533.56;1755738;80;20211;-81
2022/01/19 14:18:42;;;;;;;;;;;;;;;6.40;77.91;100535.25;1746478;80;20352;-78
2022/01/19 14:21:08;;;;;;;;;;;;;;;6.57;76.90;100532.62;1738039;81;20166;-78
2022/01/19 14:23:34;;;;;;;;;;;;;;;6.32;77.75;100528.43;1745548;81;20195;-78
2022/01/19 14:26:07;;;;;;;;;;;;;;;6.70;77.09;100531.66;1753743;81;21033;-78